Terminal Aerodrome Forecast
Issued by NWS

Home | Current Version | Previous Version | Text Only | Print | Product List | Glossary On
Versions: 1 2 3 4 5 6 7 8 9 10 11 12
000
FTUS42 TJSJ 201140
TAFJPS
TAF
TJPS 201140Z 2012/2112 00000KT P6SM FEW025
     FM201400 17008KT P6SM FEW030
     FM201900 26007KT P6SM FEW030 BKN090
     FM202300 VRB04KT P6SM VCSH FEW030 SCT100
      AMD NOT SKED TIL 210300=

USA.gov is the U.S. government's official web portal to all federal, state and local government web resources and services.